Time;durP1;ratioP1;P1;durP2;ratioP2;P2;SDS_P1;SDS_P2;PMS_P1;PMS_P2;Temp;Humidity;BMP_temperature;BMP_pressure;BME280_temperature;BME280_humidity;BME280_pressure;Samples;Min_cycle;Max_cycle;Signal;HPM_P1;HPM_P2
2021/03/12 00:01:05;;;;;;;5.70;1.33;;;11.40;58.10;;;;;;5075626;28;20199;-43
2021/03/12 00:03:33;;;;;;;2.77;1.20;;;11.40;57.90;;;;;;5064460;28;20227;-43
2021/03/12 00:06:05;;;;;;;0.80;0.70;;;11.40;57.90;;;;;;5061240;28;20435;-43
2021/03/12 00:08:37;;;;;;;2.10;0.70;;;11.30;57.70;;;;;;5067733;28;20438;-44
2021/03/12 00:11:03;;;;;;;0.70;0.60;;;11.30;57.80;;;;;;5066626;28;20440;-43
2021/03/12 00:13:29;;;;;;;0.70;0.60;;;11.30;57.80;;;;;;5061314;28;20430;-43
2021/03/12 00:15:55;;;;;;;1.40;0.73;;;11.30;57.60;;;;;;5063967;28;20508;-44
2021/03/12 00:18:32;;;;;;;1.03;0.80;;;11.10;57.70;;;;;;5066094;28;20196;-43
2021/03/12 00:20:58;;;;;;;1.17;0.60;;;11.10;58.20;;;;;;5058147;28;20441;-43
2021/03/12 00:23:23;;;;;;;0.80;0.50;;;11.20;58.10;;;;;;5068670;28;20466;-43
2021/03/12 00:25:50;;;;;;;1.43;0.77;;;10.80;57.80;;;;;;5068618;28;20588;-43
2021/03/12 00:28:17;;;;;;;1.13;0.60;;;10.90;58.20;;;;;;5067953;28;20192;-43
2021/03/12 00:30:45;;;;;;;1.50;0.80;;;10.80;58.40;;;;;;5068218;28;20465;-43
2021/03/12 00:33:11;;;;;;;1.27;0.93;;;10.90;58.40;;;;;;5059785;28;20813;-44
2021/03/12 00:35:39;;;;;;;1.10;0.87;;;10.80;58.00;;;;;;5066767;28;20794;-43
2021/03/12 00:38:05;;;;;;;1.50;1.00;;;10.90;58.30;;;;;;5065470;28;20439;-43
2021/03/12 00:40:50;;;;;;;2.20;0.50;;;10.70;58.20;;;;;;5066793;28;20435;-43
2021/03/12 00:43:16;;;;;;;2.20;0.80;;;10.70;58.40;;;;;;5065006;28;20474;-43
2021/03/12 00:45:44;;;;;;;2.70;0.60;;;10.70;58.60;;;;;;5061751;28;20457;-42
2021/03/12 00:48:10;;;;;;;5.33;1.47;;;10.90;58.30;;;;;;5067692;28;20971;-42
2021/03/12 00:50:38;;;;;;;2.10;0.77;;;11.00;57.90;;;;;;5070595;28;20426;-43
2021/03/12 00:53:05;;;;;;;1.77;0.93;;;10.90;57.40;;;;;;5070408;28;20204;-43
2021/03/12 00:55:30;;;;;;;0.70;0.50;;;10.90;57.00;;;;;;5068716;28;20434;-43
2021/03/12 00:57:56;;;;;;;1.20;0.73;;;10.80;56.80;;;;;;5065921;28;20438;-44
2021/03/12 01:00:23;;;;;;;1.67;0.83;;;11.00;56.80;;;;;;5072689;28;20200;-43
2021/03/12 01:02:49;;;;;;;2.27;0.90;;;11.10;56.30;;;;;;5074045;28;20283;-43
2021/03/12 01:05:15;;;;;;;1.80;0.90;;;11.00;54.50;;;;;;5073368;28;21056;-43
2021/03/12 01:07:40;;;;;;;3.37;0.70;;;10.60;54.80;;;;;;5070229;28;20198;-43
2021/03/12 01:10:07;;;;;;;4.30;1.10;;;10.80;55.00;;;;;;5077890;28;20192;-43
2021/03/12 01:12:33;;;;;;;4.27;1.13;;;10.80;54.70;;;;;;5073349;28;20241;-42
2021/03/12 01:14:59;;;;;;;3.37;1.30;;;10.80;54.70;;;;;;5073059;28;20442;-43
2021/03/12 01:17:25;;;;;;;2.10;0.70;;;10.70;53.90;;;;;;5060722;28;20456;-42
2021/03/12 01:19:51;;;;;;;3.33;0.90;;;10.60;54.30;;;;;;5072862;28;20426;-42
2021/03/12 01:22:16;;;;;;;1.37;0.60;;;10.60;54.60;;;;;;5069889;28;20663;-43
2021/03/12 01:24:42;;;;;;;5.93;1.17;;;10.40;53.90;;;;;;5072245;28;20223;-43
2021/03/12 01:27:08;;;;;;;3.17;1.13;;;10.50;54.40;;;;;;5068181;28;20220;-43
2021/03/12 01:29:34;;;;;;;5.37;1.20;;;10.30;53.70;;;;;;5069409;28;20199;-43
2021/03/12 01:32:00;;;;;;;3.80;1.10;;;10.30;53.70;;;;;;5065052;28;20523;-43
2021/03/12 01:34:25;;;;;;;3.60;0.90;;;10.50;54.10;;;;;;5071319;28;20530;-44
2021/03/12 01:36:51;;;;;;;2.20;0.90;;;10.50;53.40;;;;;;5072924;28;20195;-43
2021/03/12 01:39:16;;;;;;;2.23;0.83;;;10.70;53.40;;;;;;5073494;28;20199;-43
2021/03/12 01:41:42;;;;;;;1.80;1.07;;;10.80;53.00;;;;;;5073550;28;20196;-43
2021/03/12 01:44:08;;;;;;;2.30;1.00;;;10.80;52.60;;;;;;5071230;28;20223;-43
2021/03/12 01:46:33;;;;;;;4.40;1.33;;;10.80;52.20;;;;;;5072294;28;20192;-43
2021/03/12 01:48:59;;;;;;;3.60;1.33;;;10.90;52.50;;;;;;5066289;28;20199;-42
2021/03/12 01:51:24;;;;;;;2.43;1.00;;;10.90;51.80;;;;;;5073068;28;20266;-43
2021/03/12 01:53:50;;;;;;;1.77;0.80;;;11.10;51.50;;;;;;5073319;28;20207;-43
2021/03/12 01:56:16;;;;;;;4.20;0.80;;;10.80;50.40;;;;;;5072902;28;20207;-43
2021/03/12 01:58:42;;;;;;;2.23;0.90;;;10.60;50.30;;;;;;5073902;28;20192;-43
2021/03/12 02:01:07;;;;;;;3.50;1.30;;;10.50;50.60;;;;;;5072120;28;20206;-43
2021/03/12 02:03:34;;;;;;;1.50;0.80;;;10.40;50.50;;;;;;5071221;28;20323;-43
2021/03/12 02:06:00;;;;;;;4.63;1.20;;;10.40;51.00;;;;;;5072422;28;20188;-43
2021/03/12 02:08:26;;;;;;;1.70;1.10;;;10.50;51.40;;;;;;5072885;28;20434;-43
2021/03/12 02:10:52;;;;;;;1.70;1.00;;;10.50;51.60;;;;;;5063235;28;20445;-43
2021/03/12 02:13:45;;;;;;;5.23;1.07;;;10.40;51.80;;;;;;5068618;28;20805;-43
2021/03/12 02:16:23;;;;;;;4.80;0.93;;;10.40;52.60;;;;;;5071944;28;20442;-43
2021/03/12 02:18:55;;;;;;;2.60;0.90;;;10.40;52.90;;;;;;5073146;28;20442;-43
2021/03/12 02:21:34;;;;;;;4.43;0.90;;;10.60;52.50;;;;;;5072657;28;20457;-43
2021/03/12 02:24:07;;;;;;;1.90;0.80;;;10.80;52.30;;;;;;5060134;28;20981;-43
2021/03/12 02:26:42;;;;;;;2.30;1.00;;;10.80;52.40;;;;;;5070966;28;21094;-43
2021/03/12 02:29:12;;;;;;;2.60;1.20;;;10.90;52.10;;;;;;5066425;28;20476;-43
2021/03/12 02:31:40;;;;;;;4.03;1.00;;;11.10;52.10;;;;;;5067961;28;21055;-43
2021/03/12 02:34:10;;;;;;;7.67;1.73;;;11.20;51.80;;;;;;5077094;28;20430;-43
2021/03/12 02:36:38;;;;;;;1.50;0.83;;;11.40;51.80;;;;;;5062128;28;20430;-43
2021/03/12 02:39:08;;;;;;;4.00;1.37;;;11.50;52.00;;;;;;5064144;28;20468;-43
2021/03/12 02:41:35;;;;;;;4.77;1.30;;;11.20;52.50;;;;;;5067999;28;20443;-42
2021/03/12 02:44:02;;;;;;;2.53;0.97;;;11.10;54.40;;;;;;5070674;28;20846;-43
2021/03/12 02:46:28;;;;;;;1.70;1.00;;;10.50;56.30;;;;;;5060807;28;20439;-43
2021/03/12 02:48:55;;;;;;;6.17;0.90;;;10.40;57.90;;;;;;5069039;28;20441;-43
2021/03/12 02:51:22;;;;;;;5.40;1.00;;;10.10;58.30;;;;;;5069705;28;20442;-43
2021/03/12 02:53:49;;;;;;;3.37;0.90;;;10.30;58.70;;;;;;5069981;28;20460;-43
2021/03/12 02:56:16;;;;;;;4.23;1.10;;;10.40;58.10;;;;;;5066647;28;20435;-43
2021/03/12 02:58:45;;;;;;;2.13;0.90;;;10.50;57.60;;;;;;5066191;28;20438;-42
2021/03/12 03:01:12;;;;;;;2.47;0.70;;;10.70;57.00;;;;;;5071211;28;20492;-43
2021/03/12 03:03:39;;;;;;;1.23;1.00;;;11.00;56.20;;;;;;5072111;28;20524;-42
2021/03/12 03:06:07;;;;;;;4.37;1.03;;;11.20;55.00;;;;;;5071687;28;20476;-43
2021/03/12 03:08:41;;;;;;;1.60;1.10;;;11.30;54.30;;;;;;5072643;28;20434;-43
2021/03/12 03:11:08;;;;;;;5.60;1.10;;;11.40;54.10;;;;;;5070979;28;20945;-42
2021/03/12 03:13:36;;;;;;;3.03;1.13;;;11.20;52.90;;;;;;5067965;28;20533;-43
2021/03/12 03:16:05;;;;;;;1.77;1.03;;;11.10;52.80;;;;;;5067265;28;20441;-43
2021/03/12 03:18:33;;;;;;;1.80;0.70;;;10.70;52.10;;;;;;5065045;28;20434;-43
2021/03/12 03:21:00;;;;;;;2.53;0.80;;;10.60;52.70;;;;;;5058061;28;20444;-43
2021/03/12 03:23:27;;;;;;;2.30;0.80;;;10.40;52.70;;;;;;5069070;28;20466;-43
2021/03/12 03:25:54;;;;;;;1.20;0.90;;;10.30;52.80;;;;;;5069479;28;20434;-43
2021/03/12 03:28:19;;;;;;;3.03;1.03;;;10.40;52.50;;;;;;5060091;28;20513;-42
2021/03/12 03:30:45;;;;;;;1.17;0.70;;;10.50;52.30;;;;;;5071183;28;20561;-43
2021/03/12 03:33:11;;;;;;;1.53;1.00;;;10.60;52.40;;;;;;5070764;28;20192;-43
2021/03/12 03:35:36;;;;;;;2.90;1.30;;;10.70;52.10;;;;;;5069713;28;20184;-43
2021/03/12 03:38:02;;;;;;;1.40;0.90;;;10.70;52.10;;;;;;5069584;28;20196;-43
2021/03/12 03:40:28;;;;;;;2.00;0.80;;;10.70;51.20;;;;;;5073908;28;20204;-42
2021/03/12 03:42:56;;;;;;;1.50;0.80;;;10.80;51.60;;;;;;5071370;28;20279;-43
2021/03/12 03:45:25;;;;;;;1.07;0.77;;;10.90;51.40;;;;;;5069324;28;20229;-43
2021/03/12 03:47:51;;;;;;;1.03;0.77;;;10.80;51.10;;;;;;5070950;28;20430;-44
2021/03/12 03:50:17;;;;;;;3.53;0.87;;;10.80;51.30;;;;;;5068235;28;20445;-43
2021/03/12 03:52:43;;;;;;;1.27;0.70;;;10.80;51.40;;;;;;5065846;28;20419;-42
2021/03/12 03:55:10;;;;;;;3.00;1.30;;;11.00;51.30;;;;;;5063686;28;20921;-42
2021/03/12 03:57:37;;;;;;;2.83;0.70;;;10.60;50.80;;;;;;5059354;28;20438;-43
2021/03/12 04:00:06;;;;;;;6.23;1.10;;;10.50;51.30;;;;;;5069872;28;20975;-42
2021/03/12 04:02:34;;;;;;;2.43;0.83;;;10.40;51.30;;;;;;5070401;28;20462;-42
2021/03/12 04:05:01;;;;;;;2.50;0.87;;;10.30;50.80;;;;;;5069622;28;20496;-43
2021/03/12 04:07:28;;;;;;;3.40;0.93;;;10.00;50.30;;;;;;5053415;28;20640;-42
2021/03/12 04:09:54;;;;;;;5.80;1.00;;;9.80;51.00;;;;;;5047733;28;20444;-42
2021/03/12 04:12:20;;;;;;;5.50;1.10;;;9.80;51.40;;;;;;5054660;28;20530;-42
2021/03/12 04:14:46;;;;;;;5.43;1.03;;;9.70;51.10;;;;;;5071518;28;20445;-43
2021/03/12 04:17:13;;;;;;;1.40;0.70;;;10.00;50.50;;;;;;5067602;28;20470;-43
2021/03/12 04:19:40;;;;;;;4.73;0.97;;;10.10;49.90;;;;;;5051849;28;20446;-43
2021/03/12 04:22:07;;;;;;;2.70;1.00;;;10.10;49.60;;;;;;5048506;28;20441;-43
2021/03/12 04:24:33;;;;;;;6.57;1.00;;;10.10;49.30;;;;;;5069966;28;20573;-43
2021/03/12 04:26:59;;;;;;;3.00;1.20;;;10.30;49.50;;;;;;5057879;28;20438;-43
2021/03/12 04:29:25;;;;;;;3.90;1.07;;;10.50;49.10;;;;;;5070488;28;20466;-43
2021/03/12 04:31:51;;;;;;;1.90;1.03;;;10.10;48.30;;;;;;5070207;28;20864;-43
2021/03/12 04:34:17;;;;;;;1.73;0.80;;;10.00;48.80;;;;;;5071526;28;20215;-42
2021/03/12 04:36:43;;;;;;;5.33;1.10;;;10.00;48.70;;;;;;5073758;28;20918;-42
2021/03/12 04:39:12;;;;;;;4.93;1.10;;;10.10;49.40;;;;;;5074552;28;20504;-43
2021/03/12 04:41:39;;;;;;;2.33;0.80;;;10.20;48.60;;;;;;5071720;28;20434;-43
2021/03/12 04:44:06;;;;;;;1.80;0.90;;;10.10;47.80;;;;;;5073919;28;20485;-43
2021/03/12 04:46:35;;;;;;;5.80;1.10;;;10.30;48.10;;;;;;5068795;28;20495;-43
2021/03/12 04:49:01;;;;;;;2.00;1.13;;;10.20;47.70;;;;;;5060952;28;20426;-43
2021/03/12 04:51:27;;;;;;;3.80;0.90;;;10.10;47.90;;;;;;5074253;28;20445;-43
2021/03/12 04:53:53;;;;;;;4.03;1.43;;;10.10;48.20;;;;;;5073633;28;20929;-43
2021/03/12 04:56:19;;;;;;;2.23;1.30;;;9.90;48.60;;;;;;5069150;28;20196;-42
2021/03/12 04:58:45;;;;;;;3.80;1.23;;;9.90;49.00;;;;;;5061895;28;20439;-43
2021/03/12 05:01:11;;;;;;;2.63;0.93;;;10.00;48.20;;;;;;5068679;28;20538;-43
2021/03/12 05:03:38;;;;;;;9.00;1.53;;;10.10;48.20;;;;;;5073556;28;20550;-48
2021/03/12 05:06:06;;;;;;;7.20;1.37;;;10.20;47.80;;;;;;5074904;28;20446;-42
2021/03/12 05:08:33;;;;;;;5.13;0.97;;;10.20;47.70;;;;;;5074106;28;20426;-42
2021/03/12 05:11:02;;;;;;;1.63;1.00;;;10.30;47.40;;;;;;5074577;28;20422;-42
2021/03/12 05:13:28;;;;;;;3.90;1.27;;;10.20;47.50;;;;;;5073707;28;20434;-44
2021/03/12 05:15:54;;;;;;;2.83;1.57;;;10.20;47.20;;;;;;5070047;28;20480;-43
2021/03/12 05:18:20;;;;;;;12.50;1.37;;;10.20;47.20;;;;;;5074552;28;20245;-43
2021/03/12 05:20:47;;;;;;;4.53;1.43;;;10.10;47.20;;;;;;5073599;28;20233;-43
2021/03/12 05:23:14;;;;;;;4.50;1.33;;;10.20;46.80;;;;;;5078001;28;20433;-43
2021/03/12 05:25:40;;;;;;;7.10;1.20;;;10.40;46.90;;;;;;5073927;28;20820;-43
2021/03/12 05:28:06;;;;;;;3.50;1.13;;;10.20;46.50;;;;;;5074042;28;21073;-43
2021/03/12 05:30:31;;;;;;;1.60;1.00;;;10.40;46.80;;;;;;5071814;28;20552;-43
2021/03/12 05:32:57;;;;;;;2.90;0.97;;;10.60;46.90;;;;;;5070587;28;20606;-42
2021/03/12 05:35:22;;;;;;;7.60;1.40;;;10.50;46.40;;;;;;5073041;28;20184;-46
2021/03/12 05:37:48;;;;;;;4.80;1.13;;;10.40;46.60;;;;;;5073257;28;20195;-42
2021/03/12 05:40:14;;;;;;;6.43;1.00;;;10.40;46.70;;;;;;5071533;28;20191;-43
2021/03/12 05:42:42;;;;;;;4.17;1.47;;;10.20;46.60;;;;;;5071345;28;20658;-43
2021/03/12 05:45:09;;;;;;;2.23;1.10;;;10.00;48.00;;;;;;5069695;28;20592;-43
2021/03/12 05:47:36;;;;;;;4.10;0.90;;;10.20;49.40;;;;;;5071429;28;20517;-43
2021/03/12 05:50:05;;;;;;;6.30;1.43;;;10.20;48.90;;;;;;5073130;28;20422;-43
2021/03/12 05:52:31;;;;;;;2.83;1.00;;;10.20;48.90;;;;;;5065921;28;20453;-44
2021/03/12 05:54:58;;;;;;;8.70;1.13;;;10.40;49.00;;;;;;5065747;28;20432;-43
2021/03/12 05:57:24;;;;;;;2.90;1.13;;;10.30;49.20;;;;;;5073383;28;20513;-43
2021/03/12 05:59:51;;;;;;;2.60;1.20;;;10.50;49.10;;;;;;5072426;28;20474;-43
2021/03/12 06:02:16;;;;;;;3.37;0.90;;;10.60;48.80;;;;;;5070998;28;20426;-43
2021/03/12 06:04:45;;;;;;;6.03;1.10;;;10.50;48.60;;;;;;5063456;28;20493;-43
2021/03/12 06:07:13;;;;;;;7.37;1.40;;;10.50;49.00;;;;;;5069594;28;20192;-42
2021/03/12 06:09:43;;;;;;;6.57;1.43;;;10.60;48.90;;;;;;5072348;28;20434;-43
2021/03/12 06:12:10;;;;;;;5.97;1.30;;;10.80;48.60;;;;;;5047794;28;21012;-45
2021/03/12 06:14:56;;;;;;;2.87;1.20;;;10.90;48.60;;;;;;5072500;28;20438;-44
2021/03/12 06:17:31;;;;;;;8.70;1.40;;;11.10;48.50;;;;;;5066682;28;20526;-44
2021/03/12 06:19:57;;;;;;;3.13;1.67;;;11.10;48.30;;;;;;5066252;28;20440;-43
2021/03/12 06:22:22;;;;;;;5.80;1.30;;;11.20;47.90;;;;;;5066384;28;20439;-44
2021/03/12 06:24:48;;;;;;;2.17;1.00;;;11.40;47.80;;;;;;5070288;28;20481;-43
2021/03/12 06:27:28;;;;;;;4.23;1.10;;;11.80;47.30;;;;;;5068478;28;20583;-43
2021/03/12 06:30:00;;;;;;;3.77;0.90;;;11.70;46.30;;;;;;5071773;28;20302;-44
2021/03/12 06:32:43;;;;;;;5.63;1.60;;;11.60;45.80;;;;;;5070425;28;20446;-43
2021/03/12 06:35:11;;;;;;;8.30;1.40;;;11.50;45.80;;;;;;5065893;28;20451;-45
2021/03/12 06:37:37;;;;;;;3.30;0.87;;;11.50;46.20;;;;;;5068063;28;20465;-47
2021/03/12 06:40:26;;;;;;;4.30;1.20;;;11.70;46.10;;;;;;5056741;28;20441;-46
2021/03/12 06:43:07;;;;;;;2.33;1.00;;;12.00;46.00;;;;;;5065477;28;20451;-43
2021/03/12 06:45:40;;;;;;;2.77;1.03;;;11.90;45.30;;;;;;5069713;28;20919;-47
2021/03/12 06:48:21;;;;;;;6.40;1.50;;;11.70;45.30;;;;;;5066702;28;20435;-43
2021/03/12 06:50:50;;;;;;;5.10;2.13;;;11.70;45.80;;;;;;5068045;28;20438;-44
2021/03/12 06:53:30;;;;;;;1.83;1.13;;;11.60;46.20;;;;;;5066232;28;20539;-44
2021/03/12 06:56:04;;;;;;;4.63;1.20;;;11.50;46.50;;;;;;5067411;28;20856;-43
2021/03/12 06:58:30;;;;;;;2.00;1.17;;;11.30;46.90;;;;;;5070870;28;20448;-43
2021/03/12 07:00:57;;;;;;;3.10;0.83;;;11.00;47.60;;;;;;5070671;28;20530;-43
2021/03/12 07:03:29;;;;;;;1.47;0.70;;;11.00;48.00;;;;;;5069316;28;20459;-45
2021/03/12 07:05:57;;;;;;;2.53;1.10;;;10.90;48.30;;;;;;5069372;28;20439;-47
2021/03/12 07:08:41;;;;;;;5.07;1.30;;;11.00;48.30;;;;;;5067431;28;20439;-43
2021/03/12 07:11:15;;;;;;;3.83;0.90;;;11.00;48.40;;;;;;5070344;28;20458;-43
2021/03/12 07:13:42;;;;;;;3.27;0.80;;;11.40;48.10;;;;;;5068917;28;21094;-43
2021/03/12 07:16:07;;;;;;;4.63;1.00;;;11.60;47.40;;;;;;5064333;28;20427;-44
2021/03/12 07:18:33;;;;;;;1.93;0.90;;;11.80;47.20;;;;;;5065951;28;21278;-44
2021/03/12 07:20:58;;;;;;;1.00;0.90;;;11.80;47.10;;;;;;5071105;28;20188;-43
2021/03/12 07:23:27;;;;;;;1.60;1.20;;;12.00;47.00;;;;;;5068351;28;21184;-45
2021/03/12 07:25:54;;;;;;;2.43;1.30;;;12.00;46.90;;;;;;5065187;28;20282;-44
2021/03/12 07:28:26;;;;;;;3.13;0.83;;;11.70;47.20;;;;;;5060285;28;20533;-44
2021/03/12 07:30:54;;;;;;;1.47;1.07;;;11.40;48.20;;;;;;5071165;28;20523;-44
2021/03/12 07:33:25;;;;;;;4.03;1.33;;;11.40;48.70;;;;;;5069358;28;20967;-45
2021/03/12 07:35:51;;;;;;;3.77;1.03;;;11.30;49.20;;;;;;5071624;28;20456;-44
2021/03/12 07:38:18;;;;;;;1.97;1.13;;;11.20;49.00;;;;;;5071732;28;20933;-44
2021/03/12 07:40:44;;;;;;;3.07;1.10;;;11.20;49.00;;;;;;5065669;28;20517;-44
2021/03/12 07:43:12;;;;;;;1.80;1.10;;;11.10;49.60;;;;;;5057868;28;21078;-44
2021/03/12 07:45:40;;;;;;;5.50;1.13;;;11.20;49.80;;;;;;5059254;28;20538;-44
2021/03/12 07:48:06;;;;;;;1.43;0.90;;;11.00;49.50;;;;;;5065081;28;20442;-44
2021/03/12 07:50:37;;;;;;;4.07;1.47;;;11.00;49.60;;;;;;5058909;28;20440;-44
2021/03/12 07:53:04;;;;;;;2.50;0.97;;;10.80;49.60;;;;;;5067915;28;20203;-44
2021/03/12 07:55:36;;;;;;;1.37;1.20;;;11.00;49.60;;;;;;5064465;28;20784;-44
2021/03/12 07:58:09;;;;;;;2.20;1.27;;;11.00;49.90;;;;;;5071903;28;21003;-44
2021/03/12 08:00:53;;;;;;;3.47;0.87;;;11.10;50.00;;;;;;5068779;28;20951;-44
2021/03/12 08:03:32;;;;;;;4.40;1.07;;;11.30;49.80;;;;;;5060678;28;20459;-44
2021/03/12 08:05:58;;;;;;;1.73;0.87;;;10.90;49.70;;;;;;5069648;28;20462;-44
2021/03/12 08:08:33;;;;;;;0.97;0.60;;;10.60;50.60;;;;;;5059648;28;20504;-44
2021/03/12 08:11:38;;;;;;;1.07;0.80;;;10.20;52.50;;;;;;5064182;28;20449;-44
2021/03/12 08:14:19;;;;;;;4.37;1.63;;;10.00;54.00;;;;;;5057862;28;20508;-44
2021/03/12 08:16:56;;;;;;;4.23;1.00;;;10.10;54.50;;;;;;5069771;28;20615;-44
2021/03/12 08:19:46;;;;;;;7.37;0.83;;;10.40;54.50;;;;;;5060239;28;20445;-44
2021/03/12 08:22:27;;;;;;;1.03;0.70;;;10.70;53.30;;;;;;5071168;28;20418;-44
2021/03/12 08:24:54;;;;;;;2.43;1.10;;;10.60;52.50;;;;;;5069835;28;21046;-44
2021/03/12 08:27:49;;;;;;;4.43;0.97;;;10.90;52.10;;;;;;5069932;28;20468;-44
2021/03/12 08:30:24;;;;;;;3.30;1.00;;;11.30;51.80;;;;;;5043739;28;20872;-45
2021/03/12 08:32:50;;;;;;;3.13;0.80;;;11.60;50.90;;;;;;5070642;28;20441;-45
2021/03/12 08:38:02;;;;;;;2.77;0.93;;;12.30;49.50;;;;;;5069985;28;20819;-45
2021/03/12 08:40:28;;;;;;;2.23;0.80;;;12.40;48.60;;;;;;5070442;28;20446;-44
2021/03/12 08:43:03;;;;;;;2.73;0.77;;;12.60;48.50;;;;;;5069952;28;20434;-45
2021/03/12 08:45:34;;;;;;;3.93;1.20;;;12.90;48.40;;;;;;5070063;28;20485;-44
2021/03/12 08:48:07;;;;;;;2.77;1.23;;;13.00;48.40;;;;;;5070469;28;20454;-46
2021/03/12 08:50:36;;;;;;;3.97;1.13;;;13.10;47.80;;;;;;5070200;28;20441;-44
2021/03/12 08:53:04;;;;;;;1.77;1.00;;;13.30;46.80;;;;;;5068036;28;20450;-45
2021/03/12 08:55:31;;;;;;;2.50;0.97;;;13.40;46.40;;;;;;5067339;28;20433;-45
2021/03/12 08:58:36;;;;;;;4.67;1.07;;;13.30;46.20;;;;;;5065934;28;20441;-44
2021/03/12 09:01:10;;;;;;;3.73;0.90;;;13.50;45.90;;;;;;5057959;28;20442;-45
2021/03/12 09:03:36;;;;;;;1.93;1.67;;;13.70;45.50;;;;;;5069362;28;20474;-46
2021/03/12 09:06:04;;;;;;;4.50;1.60;;;13.70;45.80;;;;;;5068031;28;20816;-42
2021/03/12 09:08:31;;;;;;;3.50;1.57;;;13.70;45.80;;;;;;5069719;28;20517;-45
2021/03/12 09:10:57;;;;;;;1.20;0.87;;;13.70;45.40;;;;;;5068935;28;20805;-45
2021/03/12 09:13:28;;;;;;;3.10;1.10;;;13.80;45.60;;;;;;5070427;28;20415;-45
2021/03/12 09:15:55;;;;;;;5.33;1.40;;;13.80;45.20;;;;;;5069671;28;20450;-45
2021/03/12 09:18:26;;;;;;;2.03;0.90;;;13.80;45.40;;;;;;5070745;28;20438;-45
2021/03/12 09:20:54;;;;;;;5.00;0.97;;;13.80;45.40;;;;;;5066245;28;20430;-45
2021/03/12 09:23:35;;;;;;;1.67;1.10;;;14.00;45.20;;;;;;5069352;28;20438;-45
2021/03/12 09:26:02;;;;;;;4.40;1.90;;;14.10;45.10;;;;;;5072078;28;20470;-45
2021/03/12 09:28:29;;;;;;;7.97;1.53;;;14.20;45.20;;;;;;5067653;28;20446;-42
2021/03/12 09:30:56;;;;;;;5.03;1.30;;;14.40;45.30;;;;;;5064024;28;20474;-43
2021/03/12 09:33:38;;;;;;;2.67;1.17;;;14.40;44.50;;;;;;5071981;28;20496;-45
2021/03/12 09:36:25;;;;;;;4.20;1.00;;;14.40;45.00;;;;;;5072171;28;21038;-43
2021/03/12 09:38:53;;;;;;;0.80;0.60;;;14.50;44.50;;;;;;5054164;28;20856;-45
2021/03/12 09:41:24;;;;;;;1.97;1.20;;;14.20;42.80;;;;;;5072152;28;20430;-44
2021/03/12 09:44:01;;;;;;;3.47;1.13;;;13.90;42.60;;;;;;5072666;28;20587;-45
2021/03/12 09:46:59;;;;;;;3.97;1.60;;;13.50;43.00;;;;;;5072390;28;20442;-45
2021/03/12 09:49:52;;;;;;;2.87;1.03;;;13.10;43.40;;;;;;5069958;28;20541;-45
2021/03/12 09:52:19;;;;;;;2.47;1.20;;;13.00;43.50;;;;;;5064063;28;20481;-45
2021/03/12 09:54:46;;;;;;;1.90;1.00;;;13.30;44.00;;;;;;5071392;28;20434;-45
2021/03/12 09:57:17;;;;;;;4.00;1.37;;;13.30;44.30;;;;;;5071323;28;20492;-45
2021/03/12 09:59:48;;;;;;;3.97;1.20;;;13.60;44.60;;;;;;5072296;28;20519;-45
2021/03/12 10:02:14;;;;;;;3.40;1.20;;;13.90;44.10;;;;;;5071358;28;20806;-47
2021/03/12 10:04:42;;;;;;;2.17;1.33;;;13.90;43.50;;;;;;5070372;28;20495;-44
2021/03/12 10:07:15;;;;;;;2.63;1.03;;;14.00;43.60;;;;;;5072800;28;20237;-47
2021/03/12 10:09:46;;;;;;;4.67;1.07;;;14.10;44.20;;;;;;5071561;28;20956;-47
2021/03/12 10:12:21;;;;;;;3.87;1.10;;;14.30;44.30;;;;;;5069049;28;20516;-44
2021/03/12 10:14:51;;;;;;;4.63;1.20;;;14.30;45.30;;;;;;5063249;28;20465;-44
2021/03/12 10:17:20;;;;;;;3.67;1.43;;;14.60;45.80;;;;;;5069174;28;20540;-45
2021/03/12 10:19:55;;;;;;;3.70;1.20;;;14.70;45.70;;;;;;5066795;28;20447;-45
2021/03/12 10:22:27;;;;;;;4.37;1.00;;;14.70;45.60;;;;;;5069111;28;20533;-45
2021/03/12 10:24:58;;;;;;;1.10;0.80;;;14.60;44.80;;;;;;5070835;28;20596;-46
2021/03/12 10:27:25;;;;;;;1.37;1.10;;;14.70;44.70;;;;;;5069956;28;20507;-44
2021/03/12 10:29:52;;;;;;;1.40;0.97;;;14.80;44.60;;;;;;5066426;28;20438;-45
2021/03/12 10:32:18;;;;;;;3.13;1.10;;;14.80;44.30;;;;;;5070353;28;20430;-44
2021/03/12 10:34:53;;;;;;;2.23;0.90;;;14.80;44.10;;;;;;5071591;28;20429;-45
2021/03/12 10:37:21;;;;;;;2.63;1.80;;;14.90;45.00;;;;;;5071324;28;20470;-45
2021/03/12 10:39:49;;;;;;;1.90;1.40;;;15.00;45.10;;;;;;5072180;28;20431;-45
2021/03/12 10:42:15;;;;;;;1.87;1.50;;;15.10;43.60;;;;;;5070871;28;20434;-45
2021/03/12 10:44:48;;;;;;;6.20;1.33;;;15.10;42.90;;;;;;5070963;28;20595;-45
2021/03/12 10:47:14;;;;;;;6.60;1.50;;;15.20;42.40;;;;;;5069426;28;20937;-45
2021/03/12 10:49:39;;;;;;;1.07;0.83;;;14.90;42.60;;;;;;5071309;28;20458;-45
2021/03/12 10:52:05;;;;;;;0.97;0.83;;;14.60;41.30;;;;;;5066326;28;20192;-44
2021/03/12 10:54:31;;;;;;;1.17;0.97;;;14.50;42.30;;;;;;5068073;28;20184;-44
2021/03/12 10:56:56;;;;;;;3.70;0.90;;;14.60;41.30;;;;;;5069838;28;20426;-44
2021/03/12 10:59:23;;;;;;;3.70;1.10;;;14.60;41.70;;;;;;5054518;28;20240;-44
2021/03/12 11:01:49;;;;;;;0.73;0.70;;;14.80;42.00;;;;;;5069799;28;20275;-45
2021/03/12 11:04:16;;;;;;;1.30;0.90;;;14.70;43.70;;;;;;5071120;28;20489;-45
2021/03/12 11:06:42;;;;;;;3.00;1.40;;;14.50;44.00;;;;;;5070948;28;20422;-44
2021/03/12 11:09:13;;;;;;;1.77;0.60;;;14.20;43.90;;;;;;5069931;28;20453;-45
2021/03/12 11:11:43;;;;;;;1.17;0.97;;;14.20;44.30;;;;;;5058068;28;20545;-44
2021/03/12 11:14:10;;;;;;;1.27;1.17;;;13.90;43.80;;;;;;5066580;28;20419;-44
2021/03/12 11:16:35;;;;;;;1.07;0.70;;;13.70;43.90;;;;;;5060615;28;20431;-44
2021/03/12 11:19:01;;;;;;;0.90;0.80;;;13.50;44.20;;;;;;5070536;28;20944;-44
2021/03/12 11:21:28;;;;;;;2.30;0.90;;;13.50;45.30;;;;;;5067786;28;20315;-44
2021/03/12 11:23:54;;;;;;;0.77;0.70;;;13.80;45.00;;;;;;5066427;28;20237;-44
2021/03/12 11:26:21;;;;;;;1.43;0.70;;;13.50;43.70;;;;;;5062288;28;20951;-44
2021/03/12 11:28:47;;;;;;;1.50;1.10;;;14.00;42.20;;;;;;5064542;28;20457;-46
2021/03/12 11:31:13;;;;;;;0.87;0.77;;;13.90;41.00;;;;;;5063623;28;20565;-44
2021/03/12 11:33:40;;;;;;;2.17;1.10;;;14.00;40.40;;;;;;5069675;28;20811;-43
2021/03/12 11:36:07;;;;;;;2.87;0.73;;;14.00;40.90;;;;;;5070612;28;20438;-43
2021/03/12 11:38:33;;;;;;;1.07;0.73;;;14.00;39.40;;;;;;5070063;28;20528;-44
2021/03/12 11:41:00;;;;;;;0.90;0.80;;;14.20;40.00;;;;;;5070193;28;20925;-44
2021/03/12 11:43:26;;;;;;;2.57;1.17;;;14.40;39.00;;;;;;5067796;28;20552;-43
2021/03/12 11:45:52;;;;;;;2.50;1.53;;;14.10;37.90;;;;;;5070465;28;20802;-43
2021/03/12 11:48:18;;;;;;;2.67;1.00;;;14.10;38.20;;;;;;5072081;28;20425;-43
2021/03/12 11:50:44;;;;;;;1.93;0.90;;;14.30;39.00;;;;;;5070305;28;20196;-44
2021/03/12 11:53:10;;;;;;;2.10;0.80;;;14.10;38.60;;;;;;5070332;28;20227;-44
2021/03/12 11:55:35;;;;;;;2.03;1.17;;;14.30;38.50;;;;;;5058151;28;20531;-43
2021/03/12 11:58:01;;;;;;;3.43;1.10;;;14.30;38.70;;;;;;5070690;28;20191;-44
2021/03/12 12:00:29;;;;;;;2.63;1.37;;;14.30;39.10;;;;;;5069524;28;20195;-43
2021/03/12 12:02:55;;;;;;;2.70;1.10;;;14.20;39.90;;;;;;5070451;28;20222;-44
2021/03/12 12:05:21;;;;;;;1.87;1.20;;;14.20;40.20;;;;;;5070547;28;20874;-43
2021/03/12 12:07:46;;;;;;;1.43;0.87;;;14.00;38.20;;;;;;5070417;28;20188;-44
2021/03/12 12:10:13;;;;;;;1.70;0.90;;;14.20;37.50;;;;;;5070332;28;20200;-43
2021/03/12 12:12:45;;;;;;;1.67;0.87;;;14.40;37.60;;;;;;5068676;28;20219;-44
2021/03/12 12:15:15;;;;;;;1.17;0.73;;;14.40;36.40;;;;;;5068299;28;20793;-44
2021/03/12 12:17:42;;;;;;;1.20;0.80;;;14.50;36.40;;;;;;5070553;28;20938;-43
2021/03/12 12:20:09;;;;;;;1.90;0.80;;;14.10;36.90;;;;;;5070720;28;20923;-43
2021/03/12 12:22:35;;;;;;;2.60;0.90;;;14.20;37.20;;;;;;5070785;28;20483;-44
2021/03/12 12:25:01;;;;;;;2.40;1.40;;;14.60;37.50;;;;;;5069315;28;20981;-43
2021/03/12 12:27:28;;;;;;;1.87;0.90;;;14.60;36.20;;;;;;5071064;28;20192;-43
2021/03/12 12:29:54;;;;;;;0.90;0.73;;;14.40;33.80;;;;;;5069791;28;20470;-43
2021/03/12 12:32:19;;;;;;;3.70;0.90;;;14.10;33.60;;;;;;5069495;28;20489;-44
2021/03/12 12:34:45;;;;;;;0.90;0.60;;;13.80;33.80;;;;;;5069897;28;20191;-43
2021/03/12 12:37:11;;;;;;;5.30;0.90;;;13.70;34.10;;;;;;5070942;28;20192;-43
2021/03/12 12:39:36;;;;;;;1.73;0.80;;;13.70;34.90;;;;;;5068296;28;20224;-43
2021/03/12 12:42:02;;;;;;;1.30;0.90;;;13.70;34.30;;;;;;5069202;28;20605;-43
2021/03/12 12:44:28;;;;;;;1.33;0.70;;;13.40;34.60;;;;;;5070202;28;20224;-44
2021/03/12 12:46:53;;;;;;;1.13;0.90;;;13.60;35.90;;;;;;5068747;28;20192;-44
2021/03/12 12:49:20;;;;;;;2.13;0.80;;;13.60;36.10;;;;;;5070538;28;20675;-44
2021/03/12 12:51:46;;;;;;;2.00;1.00;;;13.70;35.20;;;;;;5068721;28;20565;-44
2021/03/12 12:54:12;;;;;;;2.33;1.27;;;13.90;35.30;;;;;;5071153;28;20428;-45
2021/03/12 12:56:38;;;;;;;2.10;1.17;;;14.00;35.00;;;;;;5072774;28;20196;-44
2021/03/12 12:59:04;;;;;;;1.93;1.17;;;14.10;35.40;;;;;;5062247;28;20620;-44